sensor_id;sensor_type;location;lat;lon;timestamp;P1;durP1;ratioP1;P2;durP2;ratioP2
53525;SDS011;40551;50.478;19.378;2023-07-31T00:00:29;10.40;;;4.50;;
53525;SDS011;40551;50.478;19.378;2023-07-31T00:05:51;8.50;;;4.90;;
53525;SDS011;40551;50.478;19.378;2023-07-31T00:08:22;8.40;;;4.60;;
53525;SDS011;40551;50.478;19.378;2023-07-31T00:10:54;10.10;;;4.40;;
53525;SDS011;40551;50.478;19.378;2023-07-31T00:13:25;12.00;;;4.70;;
53525;SDS011;40551;50.478;19.378;2023-07-31T00:15:57;11.90;;;4.70;;
53525;SDS011;40551;50.478;19.378;2023-07-31T00:18:29;7.60;;;4.20;;
53525;SDS011;40551;50.478;19.378;2023-07-31T00:21:01;9.70;;;5.00;;
53525;SDS011;40551;50.478;19.378;2023-07-31T00:23:32;10.20;;;5.00;;
53525;SDS011;40551;50.478;19.378;2023-07-31T00:26:04;10.80;;;4.40;;
53525;SDS011;40551;50.478;19.378;2023-07-31T00:28:36;9.40;;;4.60;;
53525;SDS011;40551;50.478;19.378;2023-07-31T00:31:07;12.30;;;5.00;;
53525;SDS011;40551;50.478;19.378;2023-07-31T00:33:39;11.00;;;4.40;;
53525;SDS011;40551;50.478;19.378;2023-07-31T00:36:11;12.90;;;5.00;;
53525;SDS011;40551;50.478;19.378;2023-07-31T00:38:44;11.00;;;4.70;;
53525;SDS011;40551;50.478;19.378;2023-07-31T00:41:16;10.30;;;4.60;;
53525;SDS011;40551;50.478;19.378;2023-07-31T00:43:47;11.20;;;4.50;;
53525;SDS011;40551;50.478;19.378;2023-07-31T00:46:19;7.40;;;4.10;;
53525;SDS011;40551;50.478;19.378;2023-07-31T00:48:51;11.50;;;4.60;;
53525;SDS011;40551;50.478;19.378;2023-07-31T00:51:22;10.40;;;5.20;;
53525;SDS011;40551;50.478;19.378;2023-07-31T00:53:54;9.50;;;4.40;;
53525;SDS011;40551;50.478;19.378;2023-07-31T00:56:28;10.30;;;4.50;;
53525;SDS011;40551;50.478;19.378;2023-07-31T00:59:02;10.10;;;4.50;;
53525;SDS011;40551;50.478;19.378;2023-07-31T01:01:35;10.80;;;4.60;;
53525;SDS011;40551;50.478;19.378;2023-07-31T01:04:06;9.00;;;4.50;;
53525;SDS011;40551;50.478;19.378;2023-07-31T01:06:40;9.00;;;4.40;;
53525;SDS011;40551;50.478;19.378;2023-07-31T01:09:19;10.20;;;4.60;;
53525;SDS011;40551;50.478;19.378;2023-07-31T01:12:00;8.20;;;4.60;;
53525;SDS011;40551;50.478;19.378;2023-07-31T01:14:33;9.00;;;4.20;;
53525;SDS011;40551;50.478;19.378;2023-07-31T01:17:05;8.60;;;4.00;;
53525;SDS011;40551;50.478;19.378;2023-07-31T01:19:37;10.70;;;4.80;;
53525;SDS011;40551;50.478;19.378;2023-07-31T01:22:23;8.90;;;4.30;;
53525;SDS011;40551;50.478;19.378;2023-07-31T01:25:14;9.40;;;4.10;;
53525;SDS011;40551;50.478;19.378;2023-07-31T01:27:58;8.70;;;4.50;;
53525;SDS011;40551;50.478;19.378;2023-07-31T01:30:34;10.90;;;4.80;;
53525;SDS011;40551;50.478;19.378;2023-07-31T01:33:11;8.80;;;4.90;;
53525;SDS011;40551;50.478;19.378;2023-07-31T01:35:44;12.20;;;5.00;;
53525;SDS011;40551;50.478;19.378;2023-07-31T01:38:21;12.50;;;4.50;;
53525;SDS011;40551;50.478;19.378;2023-07-31T01:40:53;7.60;;;4.20;;
53525;SDS011;40551;50.478;19.378;2023-07-31T01:43:27;7.50;;;4.20;;
53525;SDS011;40551;50.478;19.378;2023-07-31T01:45:58;9.10;;;4.60;;
53525;SDS011;40551;50.478;19.378;2023-07-31T01:48:30;7.10;;;4.40;;
53525;SDS011;40551;50.478;19.378;2023-07-31T01:51:04;8.10;;;4.10;;
53525;SDS011;40551;50.478;19.378;2023-07-31T01:53:37;10.10;;;4.70;;
53525;SDS011;40551;50.478;19.378;2023-07-31T01:56:09;8.00;;;4.50;;
53525;SDS011;40551;50.478;19.378;2023-07-31T01:58:41;9.30;;;4.50;;
53525;SDS011;40551;50.478;19.378;2023-07-31T02:01:13;9.30;;;4.20;;
53525;SDS011;40551;50.478;19.378;2023-07-31T02:03:44;8.60;;;4.90;;
53525;SDS011;40551;50.478;19.378;2023-07-31T02:06:16;8.50;;;4.20;;
53525;SDS011;40551;50.478;19.378;2023-07-31T02:08:48;6.50;;;4.00;;
53525;SDS011;40551;50.478;19.378;2023-07-31T02:11:20;9.00;;;4.40;;
53525;SDS011;40551;50.478;19.378;2023-07-31T02:13:52;7.10;;;4.20;;
53525;SDS011;40551;50.478;19.378;2023-07-31T02:16:23;7.70;;;4.00;;
53525;SDS011;40551;50.478;19.378;2023-07-31T02:18:55;9.40;;;4.10;;
53525;SDS011;40551;50.478;19.378;2023-07-31T02:21:27;8.30;;;3.90;;
53525;SDS011;40551;50.478;19.378;2023-07-31T02:23:59;7.20;;;4.00;;
53525;SDS011;40551;50.478;19.378;2023-07-31T02:26:30;10.40;;;4.60;;
53525;SDS011;40551;50.478;19.378;2023-07-31T02:29:02;8.90;;;4.30;;
53525;SDS011;40551;50.478;19.378;2023-07-31T02:31:34;8.90;;;4.60;;
53525;SDS011;40551;50.478;19.378;2023-07-31T02:34:07;8.50;;;4.30;;
53525;SDS011;40551;50.478;19.378;2023-07-31T02:36:38;9.40;;;4.60;;
53525;SDS011;40551;50.478;19.378;2023-07-31T02:39:10;6.70;;;4.20;;
53525;SDS011;40551;50.478;19.378;2023-07-31T02:41:43;8.10;;;4.50;;
53525;SDS011;40551;50.478;19.378;2023-07-31T02:44:14;11.20;;;4.00;;
53525;SDS011;40551;50.478;19.378;2023-07-31T02:46:46;7.70;;;4.00;;
53525;SDS011;40551;50.478;19.378;2023-07-31T02:49:18;8.10;;;4.00;;
53525;SDS011;40551;50.478;19.378;2023-07-31T02:51:50;9.90;;;4.50;;
53525;SDS011;40551;50.478;19.378;2023-07-31T02:54:22;8.20;;;3.90;;
53525;SDS011;40551;50.478;19.378;2023-07-31T02:56:53;9.30;;;4.00;;
53525;SDS011;40551;50.478;19.378;2023-07-31T02:59:25;8.00;;;4.10;;
53525;SDS011;40551;50.478;19.378;2023-07-31T03:01:58;8.10;;;4.00;;
53525;SDS011;40551;50.478;19.378;2023-07-31T03:04:29;7.00;;;3.90;;
53525;SDS011;40551;50.478;19.378;2023-07-31T03:07:01;8.30;;;3.80;;
53525;SDS011;40551;50.478;19.378;2023-07-31T03:09:33;7.00;;;3.90;;
53525;SDS011;40551;50.478;19.378;2023-07-31T03:12:05;8.40;;;3.80;;
53525;SDS011;40551;50.478;19.378;2023-07-31T03:14:38;7.20;;;3.70;;
53525;SDS011;40551;50.478;19.378;2023-07-31T03:17:09;6.80;;;3.70;;
53525;SDS011;40551;50.478;19.378;2023-07-31T03:19:41;8.50;;;3.90;;
53525;SDS011;40551;50.478;19.378;2023-07-31T03:22:13;10.00;;;3.90;;
53525;SDS011;40551;50.478;19.378;2023-07-31T03:24:44;8.40;;;3.70;;
53525;SDS011;40551;50.478;19.378;2023-07-31T03:27:16;8.50;;;4.00;;
53525;SDS011;40551;50.478;19.378;2023-07-31T03:29:48;10.30;;;3.60;;
53525;SDS011;40551;50.478;19.378;2023-07-31T03:32:20;7.20;;;3.60;;
53525;SDS011;40551;50.478;19.378;2023-07-31T03:34:52;7.60;;;3.70;;
53525;SDS011;40551;50.478;19.378;2023-07-31T03:37:24;9.20;;;3.80;;
53525;SDS011;40551;50.478;19.378;2023-07-31T03:39:56;6.80;;;3.80;;
53525;SDS011;40551;50.478;19.378;2023-07-31T03:42:27;7.80;;;3.80;;
53525;SDS011;40551;50.478;19.378;2023-07-31T03:44:59;10.00;;;4.10;;
53525;SDS011;40551;50.478;19.378;2023-07-31T03:47:30;6.80;;;3.70;;
53525;SDS011;40551;50.478;19.378;2023-07-31T03:50:02;8.40;;;4.00;;
53525;SDS011;40551;50.478;19.378;2023-07-31T03:52:35;8.50;;;3.30;;
53525;SDS011;40551;50.478;19.378;2023-07-31T03:55:07;7.40;;;3.80;;
53525;SDS011;40551;50.478;19.378;2023-07-31T03:57:39;7.60;;;4.10;;
53525;SDS011;40551;50.478;19.378;2023-07-31T04:00:12;9.50;;;3.70;;
53525;SDS011;40551;50.478;19.378;2023-07-31T04:02:44;10.00;;;4.40;;
53525;SDS011;40551;50.478;19.378;2023-07-31T04:05:15;7.50;;;4.00;;
53525;SDS011;40551;50.478;19.378;2023-07-31T04:07:47;9.80;;;3.90;;
53525;SDS011;40551;50.478;19.378;2023-07-31T04:10:19;9.60;;;3.90;;
53525;SDS011;40551;50.478;19.378;2023-07-31T04:12:50;7.60;;;3.90;;
53525;SDS011;40551;50.478;19.378;2023-07-31T04:15:22;8.80;;;3.70;;
53525;SDS011;40551;50.478;19.378;2023-07-31T04:17:54;8.70;;;3.80;;
53525;SDS011;40551;50.478;19.378;2023-07-31T04:20:26;8.40;;;3.90;;
53525;SDS011;40551;50.478;19.378;2023-07-31T04:22:57;6.50;;;3.50;;
53525;SDS011;40551;50.478;19.378;2023-07-31T04:25:29;8.20;;;3.70;;
53525;SDS011;40551;50.478;19.378;2023-07-31T04:28:00;6.40;;;3.30;;
53525;SDS011;40551;50.478;19.378;2023-07-31T04:30:32;6.60;;;3.70;;
53525;SDS011;40551;50.478;19.378;2023-07-31T04:33:05;8.50;;;3.90;;
53525;SDS011;40551;50.478;19.378;2023-07-31T04:35:37;7.40;;;3.80;;
53525;SDS011;40551;50.478;19.378;2023-07-31T04:38:08;8.90;;;3.50;;
53525;SDS011;40551;50.478;19.378;2023-07-31T04:40:40;8.80;;;4.20;;
53525;SDS011;40551;50.478;19.378;2023-07-31T04:43:12;6.30;;;3.60;;
53525;SDS011;40551;50.478;19.378;2023-07-31T04:45:45;8.10;;;3.60;;
53525;SDS011;40551;50.478;19.378;2023-07-31T04:48:18;8.90;;;3.60;;
53525;SDS011;40551;50.478;19.378;2023-07-31T04:50:50;8.70;;;4.00;;
53525;SDS011;40551;50.478;19.378;2023-07-31T04:53:22;7.10;;;3.70;;
53525;SDS011;40551;50.478;19.378;2023-07-31T04:55:53;6.70;;;3.60;;
53525;SDS011;40551;50.478;19.378;2023-07-31T04:58:25;7.60;;;3.80;;
53525;SDS011;40551;50.478;19.378;2023-07-31T05:00:56;7.70;;;3.50;;
53525;SDS011;40551;50.478;19.378;2023-07-31T05:03:28;9.40;;;4.00;;
53525;SDS011;40551;50.478;19.378;2023-07-31T05:06:00;13.00;;;3.70;;
53525;SDS011;40551;50.478;19.378;2023-07-31T05:08:32;15.60;;;12.30;;
53525;SDS011;40551;50.478;19.378;2023-07-31T05:11:03;17.00;;;14.90;;
53525;SDS011;40551;50.478;19.378;2023-07-31T05:13:35;38.50;;;35.00;;
53525;SDS011;40551;50.478;19.378;2023-07-31T05:16:07;13.30;;;9.90;;
53525;SDS011;40551;50.478;19.378;2023-07-31T05:18:38;11.40;;;5.50;;
53525;SDS011;40551;50.478;19.378;2023-07-31T05:21:10;12.90;;;5.20;;
53525;SDS011;40551;50.478;19.378;2023-07-31T05:23:42;8.90;;;4.30;;
53525;SDS011;40551;50.478;19.378;2023-07-31T05:26:14;10.10;;;3.80;;
53525;SDS011;40551;50.478;19.378;2023-07-31T05:28:47;7.30;;;3.70;;
53525;SDS011;40551;50.478;19.378;2023-07-31T05:31:19;9.50;;;3.80;;
53525;SDS011;40551;50.478;19.378;2023-07-31T05:33:51;10.60;;;4.40;;
53525;SDS011;40551;50.478;19.378;2023-07-31T05:36:23;15.40;;;4.90;;
53525;SDS011;40551;50.478;19.378;2023-07-31T05:38:55;18.50;;;5.70;;
53525;SDS011;40551;50.478;19.378;2023-07-31T05:41:26;17.70;;;5.90;;
53525;SDS011;40551;50.478;19.378;2023-07-31T05:43:58;16.90;;;6.30;;
53525;SDS011;40551;50.478;19.378;2023-07-31T05:46:29;24.40;;;6.70;;
53525;SDS011;40551;50.478;19.378;2023-07-31T05:49:01;17.00;;;5.00;;
53525;SDS011;40551;50.478;19.378;2023-07-31T05:51:33;12.10;;;3.60;;
53525;SDS011;40551;50.478;19.378;2023-07-31T05:54:05;10.50;;;3.90;;
53525;SDS011;40551;50.478;19.378;2023-07-31T05:56:36;9.90;;;3.30;;
53525;SDS011;40551;50.478;19.378;2023-07-31T05:59:09;9.10;;;3.60;;
53525;SDS011;40551;50.478;19.378;2023-07-31T06:01:42;12.30;;;4.10;;
53525;SDS011;40551;50.478;19.378;2023-07-31T06:04:14;11.60;;;3.40;;
53525;SDS011;40551;50.478;19.378;2023-07-31T06:06:46;10.50;;;3.50;;
53525;SDS011;40551;50.478;19.378;2023-07-31T06:09:17;9.10;;;3.70;;
53525;SDS011;40551;50.478;19.378;2023-07-31T06:11:49;6.70;;;3.40;;
53525;SDS011;40551;50.478;19.378;2023-07-31T06:14:21;9.80;;;3.60;;
53525;SDS011;40551;50.478;19.378;2023-07-31T06:16:53;9.00;;;3.90;;
53525;SDS011;40551;50.478;19.378;2023-07-31T06:19:24;11.20;;;3.40;;
53525;SDS011;40551;50.478;19.378;2023-07-31T06:21:56;12.70;;;3.60;;
53525;SDS011;40551;50.478;19.378;2023-07-31T06:24:28;10.20;;;3.40;;
53525;SDS011;40551;50.478;19.378;2023-07-31T06:26:59;8.70;;;3.10;;
53525;SDS011;40551;50.478;19.378;2023-07-31T06:29:32;7.40;;;3.00;;
53525;SDS011;40551;50.478;19.378;2023-07-31T06:32:05;8.20;;;3.40;;
53525;SDS011;40551;50.478;19.378;2023-07-31T06:34:37;8.00;;;3.40;;
53525;SDS011;40551;50.478;19.378;2023-07-31T06:37:09;10.00;;;3.70;;
53525;SDS011;40551;50.478;19.378;2023-07-31T06:39:41;13.50;;;4.10;;
53525;SDS011;40551;50.478;19.378;2023-07-31T06:42:12;9.10;;;3.20;;
53525;SDS011;40551;50.478;19.378;2023-07-31T06:44:44;9.80;;;3.40;;
53525;SDS011;40551;50.478;19.378;2023-07-31T06:47:16;7.70;;;3.70;;
53525;SDS011;40551;50.478;19.378;2023-07-31T06:49:47;9.20;;;3.30;;
53525;SDS011;40551;50.478;19.378;2023-07-31T06:52:19;7.70;;;3.00;;
53525;SDS011;40551;50.478;19.378;2023-07-31T06:55:01;9.00;;;3.20;;
53525;SDS011;40551;50.478;19.378;2023-07-31T06:57:33;10.40;;;3.10;;
53525;SDS011;40551;50.478;19.378;2023-07-31T07:00:07;7.30;;;3.00;;
53525;SDS011;40551;50.478;19.378;2023-07-31T07:02:39;7.80;;;3.20;;
53525;SDS011;40551;50.478;19.378;2023-07-31T07:05:11;7.00;;;2.80;;
53525;SDS011;40551;50.478;19.378;2023-07-31T07:07:43;7.20;;;2.90;;
53525;SDS011;40551;50.478;19.378;2023-07-31T07:10:15;6.30;;;2.80;;
53525;SDS011;40551;50.478;19.378;2023-07-31T07:12:47;9.90;;;2.90;;
53525;SDS011;40551;50.478;19.378;2023-07-31T07:15:19;8.60;;;3.40;;
53525;SDS011;40551;50.478;19.378;2023-07-31T07:17:50;9.00;;;2.80;;
53525;SDS011;40551;50.478;19.378;2023-07-31T07:20:22;7.20;;;2.60;;
53525;SDS011;40551;50.478;19.378;2023-07-31T07:22:53;9.20;;;2.70;;
53525;SDS011;40551;50.478;19.378;2023-07-31T07:25:25;8.60;;;2.80;;
53525;SDS011;40551;50.478;19.378;2023-07-31T07:27:57;10.70;;;3.10;;
53525;SDS011;40551;50.478;19.378;2023-07-31T07:30:28;6.90;;;2.50;;
53525;SDS011;40551;50.478;19.378;2023-07-31T07:33:00;6.80;;;2.70;;
53525;SDS011;40551;50.478;19.378;2023-07-31T07:35:34;9.30;;;2.90;;
53525;SDS011;40551;50.478;19.378;2023-07-31T07:38:06;7.30;;;3.00;;
53525;SDS011;40551;50.478;19.378;2023-07-31T07:40:39;6.80;;;2.60;;
53525;SDS011;40551;50.478;19.378;2023-07-31T07:43:11;8.10;;;2.90;;
53525;SDS011;40551;50.478;19.378;2023-07-31T07:45:42;9.50;;;3.50;;
53525;SDS011;40551;50.478;19.378;2023-07-31T07:48:14;8.50;;;2.90;;
53525;SDS011;40551;50.478;19.378;2023-07-31T07:50:46;8.50;;;3.00;;
53525;SDS011;40551;50.478;19.378;2023-07-31T07:53:18;13.10;;;2.90;;
53525;SDS011;40551;50.478;19.378;2023-07-31T07:55:50;19.90;;;3.30;;
53525;SDS011;40551;50.478;19.378;2023-07-31T07:58:21;7.00;;;2.80;;
53525;SDS011;40551;50.478;19.378;2023-07-31T08:00:53;6.80;;;2.40;;
53525;SDS011;40551;50.478;19.378;2023-07-31T08:03:25;8.20;;;2.80;;
53525;SDS011;40551;50.478;19.378;2023-07-31T08:05:58;11.90;;;3.00;;
53525;SDS011;40551;50.478;19.378;2023-07-31T08:08:30;9.10;;;2.70;;
53525;SDS011;40551;50.478;19.378;2023-07-31T08:11:02;8.90;;;2.90;;
53525;SDS011;40551;50.478;19.378;2023-07-31T08:13:34;11.30;;;2.80;;
53525;SDS011;40551;50.478;19.378;2023-07-31T08:16:07;8.90;;;3.60;;
53525;SDS011;40551;50.478;19.378;2023-07-31T08:18:39;7.90;;;3.20;;
53525;SDS011;40551;50.478;19.378;2023-07-31T08:21:11;9.60;;;3.30;;
53525;SDS011;40551;50.478;19.378;2023-07-31T08:23:43;11.50;;;3.80;;
53525;SDS011;40551;50.478;19.378;2023-07-31T08:26:15;8.00;;;2.90;;
53525;SDS011;40551;50.478;19.378;2023-07-31T08:28:48;8.90;;;3.10;;
53525;SDS011;40551;50.478;19.378;2023-07-31T08:31:20;9.10;;;3.10;;
53525;SDS011;40551;50.478;19.378;2023-07-31T08:33:52;16.50;;;3.00;;
53525;SDS011;40551;50.478;19.378;2023-07-31T08:36:26;12.50;;;3.60;;
53525;SDS011;40551;50.478;19.378;2023-07-31T08:39:03;9.00;;;2.80;;
53525;SDS011;40551;50.478;19.378;2023-07-31T08:41:38;8.60;;;2.90;;
53525;SDS011;40551;50.478;19.378;2023-07-31T08:44:10;6.30;;;3.00;;
53525;SDS011;40551;50.478;19.378;2023-07-31T08:46:42;10.10;;;3.30;;
53525;SDS011;40551;50.478;19.378;2023-07-31T08:49:15;8.60;;;2.90;;
53525;SDS011;40551;50.478;19.378;2023-07-31T08:51:50;10.30;;;2.80;;
53525;SDS011;40551;50.478;19.378;2023-07-31T08:54:23;9.20;;;2.80;;
53525;SDS011;40551;50.478;19.378;2023-07-31T08:56:59;8.10;;;2.80;;
53525;SDS011;40551;50.478;19.378;2023-07-31T08:59:31;7.00;;;2.90;;
53525;SDS011;40551;50.478;19.378;2023-07-31T09:02:07;7.70;;;3.10;;
53525;SDS011;40551;50.478;19.378;2023-07-31T09:04:40;9.70;;;3.00;;
53525;SDS011;40551;50.478;19.378;2023-07-31T09:07:11;7.60;;;2.90;;
53525;SDS011;40551;50.478;19.378;2023-07-31T09:09:45;6.10;;;2.60;;
53525;SDS011;40551;50.478;19.378;2023-07-31T09:12:17;6.80;;;2.80;;
53525;SDS011;40551;50.478;19.378;2023-07-31T09:14:49;9.50;;;2.90;;
53525;SDS011;40551;50.478;19.378;2023-07-31T09:17:29;7.90;;;2.60;;
53525;SDS011;40551;50.478;19.378;2023-07-31T09:20:13;10.50;;;2.80;;
53525;SDS011;40551;50.478;19.378;2023-07-31T09:22:46;7.50;;;2.50;;
53525;SDS011;40551;50.478;19.378;2023-07-31T09:25:20;9.00;;;2.80;;
53525;SDS011;40551;50.478;19.378;2023-07-31T09:27:52;6.90;;;2.50;;
53525;SDS011;40551;50.478;19.378;2023-07-31T09:30:29;6.50;;;2.30;;
53525;SDS011;40551;50.478;19.378;2023-07-31T09:33:04;6.00;;;2.10;;
53525;SDS011;40551;50.478;19.378;2023-07-31T09:35:36;9.60;;;2.70;;
53525;SDS011;40551;50.478;19.378;2023-07-31T09:38:10;9.20;;;2.60;;
53525;SDS011;40551;50.478;19.378;2023-07-31T09:40:44;5.90;;;2.40;;
53525;SDS011;40551;50.478;19.378;2023-07-31T09:43:18;8.40;;;2.40;;
53525;SDS011;40551;50.478;19.378;2023-07-31T09:45:54;9.90;;;2.50;;
53525;SDS011;40551;50.478;19.378;2023-07-31T09:48:27;6.60;;;2.50;;
53525;SDS011;40551;50.478;19.378;2023-07-31T09:50:59;7.40;;;2.40;;
53525;SDS011;40551;50.478;19.378;2023-07-31T09:53:35;5.60;;;2.20;;
53525;SDS011;40551;50.478;19.378;2023-07-31T09:56:07;6.20;;;2.40;;
53525;SDS011;40551;50.478;19.378;2023-07-31T09:58:39;7.30;;;2.70;;
53525;SDS011;40551;50.478;19.378;2023-07-31T10:01:10;6.80;;;2.30;;
53525;SDS011;40551;50.478;19.378;2023-07-31T10:03:43;10.90;;;2.60;;
53525;SDS011;40551;50.478;19.378;2023-07-31T10:06:16;10.90;;;2.50;;
53525;SDS011;40551;50.478;19.378;2023-07-31T10:08:48;8.80;;;2.50;;
53525;SDS011;40551;50.478;19.378;2023-07-31T10:11:24;9.30;;;2.50;;
53525;SDS011;40551;50.478;19.378;2023-07-31T10:13:57;7.30;;;2.70;;
53525;SDS011;40551;50.478;19.378;2023-07-31T10:16:30;6.80;;;2.40;;
53525;SDS011;40551;50.478;19.378;2023-07-31T10:19:02;7.80;;;2.70;;
53525;SDS011;40551;50.478;19.378;2023-07-31T10:21:34;7.60;;;2.70;;
53525;SDS011;40551;50.478;19.378;2023-07-31T10:24:07;9.20;;;2.40;;
53525;SDS011;40551;50.478;19.378;2023-07-31T10:26:39;10.80;;;2.60;;
53525;SDS011;40551;50.478;19.378;2023-07-31T10:29:14;11.60;;;3.40;;
53525;SDS011;40551;50.478;19.378;2023-07-31T10:31:47;8.40;;;2.80;;
53525;SDS011;40551;50.478;19.378;2023-07-31T10:34:20;9.20;;;3.10;;
53525;SDS011;40551;50.478;19.378;2023-07-31T10:36:52;5.90;;;2.50;;
53525;SDS011;40551;50.478;19.378;2023-07-31T10:39:57;7.70;;;2.70;;
53525;SDS011;40551;50.478;19.378;2023-07-31T10:42:32;9.10;;;2.90;;
53525;SDS011;40551;50.478;19.378;2023-07-31T10:45:05;8.00;;;2.70;;
53525;SDS011;40551;50.478;19.378;2023-07-31T10:47:39;5.70;;;2.50;;
53525;SDS011;40551;50.478;19.378;2023-07-31T10:50:16;11.20;;;2.90;;
53525;SDS011;40551;50.478;19.378;2023-07-31T10:52:49;9.50;;;3.20;;
53525;SDS011;40551;50.478;19.378;2023-07-31T10:55:26;7.10;;;2.70;;
53525;SDS011;40551;50.478;19.378;2023-07-31T10:58:06;9.20;;;2.80;;
53525;SDS011;40551;50.478;19.378;2023-07-31T11:00:39;7.80;;;2.60;;
53525;SDS011;40551;50.478;19.378;2023-07-31T11:03:14;8.30;;;2.70;;
53525;SDS011;40551;50.478;19.378;2023-07-31T11:05:53;7.50;;;2.50;;
53525;SDS011;40551;50.478;19.378;2023-07-31T11:08:32;9.40;;;3.10;;
53525;SDS011;40551;50.478;19.378;2023-07-31T11:11:06;11.60;;;3.10;;
53525;SDS011;40551;50.478;19.378;2023-07-31T11:13:42;10.00;;;2.70;;
53525;SDS011;40551;50.478;19.378;2023-07-31T11:16:18;9.20;;;3.00;;
53525;SDS011;40551;50.478;19.378;2023-07-31T11:18:51;10.40;;;2.60;;
53525;SDS011;40551;50.478;19.378;2023-07-31T11:21:25;7.90;;;2.60;;
53525;SDS011;40551;50.478;19.378;2023-07-31T11:23:58;9.10;;;2.80;;
53525;SDS011;40551;50.478;19.378;2023-07-31T11:26:30;6.30;;;2.80;;
53525;SDS011;40551;50.478;19.378;2023-07-31T11:29:02;8.90;;;2.50;;
53525;SDS011;40551;50.478;19.378;2023-07-31T11:31:43;7.90;;;2.80;;
53525;SDS011;40551;50.478;19.378;2023-07-31T11:34:15;6.80;;;2.50;;
53525;SDS011;40551;50.478;19.378;2023-07-31T11:36:55;7.60;;;2.70;;
53525;SDS011;40551;50.478;19.378;2023-07-31T11:39:28;6.40;;;2.70;;
53525;SDS011;40551;50.478;19.378;2023-07-31T11:41:59;8.70;;;2.80;;
53525;SDS011;40551;50.478;19.378;2023-07-31T11:44:38;8.70;;;2.40;;
53525;SDS011;40551;50.478;19.378;2023-07-31T11:47:17;9.40;;;2.50;;
53525;SDS011;40551;50.478;19.378;2023-07-31T11:49:50;7.20;;;2.20;;
53525;SDS011;40551;50.478;19.378;2023-07-31T11:52:21;8.60;;;2.70;;
53525;SDS011;40551;50.478;19.378;2023-07-31T11:54:54;8.90;;;2.70;;
53525;SDS011;40551;50.478;19.378;2023-07-31T11:57:26;6.80;;;2.40;;
53525;SDS011;40551;50.478;19.378;2023-07-31T11:59:59;6.90;;;2.70;;
53525;SDS011;40551;50.478;19.378;2023-07-31T12:02:32;8.10;;;2.80;;
53525;SDS011;40551;50.478;19.378;2023-07-31T12:05:04;14.10;;;2.80;;
53525;SDS011;40551;50.478;19.378;2023-07-31T12:07:49;8.20;;;2.90;;
53525;SDS011;40551;50.478;19.378;2023-07-31T12:10:24;9.00;;;2.40;;
53525;SDS011;40551;50.478;19.378;2023-07-31T12:13:01;9.80;;;2.30;;
53525;SDS011;40551;50.478;19.378;2023-07-31T12:15:35;5.80;;;2.50;;
53525;SDS011;40551;50.478;19.378;2023-07-31T12:18:09;6.60;;;2.20;;
53525;SDS011;40551;50.478;19.378;2023-07-31T12:20:42;8.00;;;2.50;;
53525;SDS011;40551;50.478;19.378;2023-07-31T12:23:16;8.40;;;2.70;;
53525;SDS011;40551;50.478;19.378;2023-07-31T12:26:00;5.90;;;2.30;;
53525;SDS011;40551;50.478;19.378;2023-07-31T12:28:35;9.00;;;2.50;;
53525;SDS011;40551;50.478;19.378;2023-07-31T12:31:10;8.80;;;2.50;;
53525;SDS011;40551;50.478;19.378;2023-07-31T12:33:43;7.30;;;2.60;;
53525;SDS011;40551;50.478;19.378;2023-07-31T12:36:16;9.10;;;2.40;;
53525;SDS011;40551;50.478;19.378;2023-07-31T12:38:48;8.20;;;2.40;;
53525;SDS011;40551;50.478;19.378;2023-07-31T12:41:21;7.80;;;2.40;;
53525;SDS011;40551;50.478;19.378;2023-07-31T12:43:56;9.90;;;2.70;;
53525;SDS011;40551;50.478;19.378;2023-07-31T12:46:28;7.10;;;2.50;;
53525;SDS011;40551;50.478;19.378;2023-07-31T12:49:00;9.70;;;2.50;;
53525;SDS011;40551;50.478;19.378;2023-07-31T12:51:32;8.40;;;2.60;;
53525;SDS011;40551;50.478;19.378;2023-07-31T12:54:03;8.50;;;2.60;;
53525;SDS011;40551;50.478;19.378;2023-07-31T12:56:35;7.60;;;2.70;;
53525;SDS011;40551;50.478;19.378;2023-07-31T12:59:07;8.40;;;2.60;;
53525;SDS011;40551;50.478;19.378;2023-07-31T13:01:38;6.00;;;2.20;;
53525;SDS011;40551;50.478;19.378;2023-07-31T13:04:10;6.50;;;2.70;;
53525;SDS011;40551;50.478;19.378;2023-07-31T13:06:42;6.60;;;2.40;;
53525;SDS011;40551;50.478;19.378;2023-07-31T13:09:14;9.20;;;2.50;;
53525;SDS011;40551;50.478;19.378;2023-07-31T13:11:46;7.60;;;2.50;;
53525;SDS011;40551;50.478;19.378;2023-07-31T13:14:18;6.90;;;2.60;;
53525;SDS011;40551;50.478;19.378;2023-07-31T13:16:49;9.40;;;2.50;;
53525;SDS011;40551;50.478;19.378;2023-07-31T13:19:21;10.60;;;2.70;;
53525;SDS011;40551;50.478;19.378;2023-07-31T13:21:52;12.00;;;2.80;;
53525;SDS011;40551;50.478;19.378;2023-07-31T13:24:24;9.10;;;2.40;;
53525;SDS011;40551;50.478;19.378;2023-07-31T13:26:55;10.80;;;2.60;;
53525;SDS011;40551;50.478;19.378;2023-07-31T13:29:27;9.40;;;2.40;;
53525;SDS011;40551;50.478;19.378;2023-07-31T13:31:59;8.00;;;2.70;;
53525;SDS011;40551;50.478;19.378;2023-07-31T13:34:30;10.50;;;2.70;;
53525;SDS011;40551;50.478;19.378;2023-07-31T13:37:02;6.50;;;2.30;;
53525;SDS011;40551;50.478;19.378;2023-07-31T13:39:35;8.80;;;2.70;;
53525;SDS011;40551;50.478;19.378;2023-07-31T13:42:07;7.00;;;2.20;;
53525;SDS011;40551;50.478;19.378;2023-07-31T13:44:41;5.50;;;2.40;;
53525;SDS011;40551;50.478;19.378;2023-07-31T13:47:12;8.80;;;2.60;;
53525;SDS011;40551;50.478;19.378;2023-07-31T13:49:44;6.30;;;2.30;;
53525;SDS011;40551;50.478;19.378;2023-07-31T13:52:15;7.60;;;2.50;;
53525;SDS011;40551;50.478;19.378;2023-07-31T13:54:47;8.00;;;2.20;;
53525;SDS011;40551;50.478;19.378;2023-07-31T13:57:18;5.00;;;2.10;;
53525;SDS011;40551;50.478;19.378;2023-07-31T13:59:50;9.30;;;2.50;;
53525;SDS011;40551;50.478;19.378;2023-07-31T14:02:22;7.70;;;2.20;;
53525;SDS011;40551;50.478;19.378;2023-07-31T14:04:53;6.70;;;2.20;;
53525;SDS011;40551;50.478;19.378;2023-07-31T14:07:25;8.10;;;2.20;;
53525;SDS011;40551;50.478;19.378;2023-07-31T14:09:56;8.40;;;2.40;;
53525;SDS011;40551;50.478;19.378;2023-07-31T14:12:28;6.00;;;2.50;;
53525;SDS011;40551;50.478;19.378;2023-07-31T14:15:11;7.90;;;2.40;;
53525;SDS011;40551;50.478;19.378;2023-07-31T14:17:43;7.00;;;2.60;;
53525;SDS011;40551;50.478;19.378;2023-07-31T14:20:15;6.10;;;2.20;;
53525;SDS011;40551;50.478;19.378;2023-07-31T14:22:47;7.00;;;2.60;;
53525;SDS011;40551;50.478;19.378;2023-07-31T14:25:19;5.30;;;2.40;;
53525;SDS011;40551;50.478;19.378;2023-07-31T14:27:50;8.90;;;2.40;;
53525;SDS011;40551;50.478;19.378;2023-07-31T14:30:22;6.00;;;2.40;;
53525;SDS011;40551;50.478;19.378;2023-07-31T14:32:53;8.20;;;2.60;;
53525;SDS011;40551;50.478;19.378;2023-07-31T14:35:25;6.90;;;2.30;;
53525;SDS011;40551;50.478;19.378;2023-07-31T14:37:57;8.50;;;2.60;;
53525;SDS011;40551;50.478;19.378;2023-07-31T14:40:28;6.80;;;2.50;;
53525;SDS011;40551;50.478;19.378;2023-07-31T14:43:00;6.60;;;2.30;;
53525;SDS011;40551;50.478;19.378;2023-07-31T14:45:31;7.80;;;2.40;;
53525;SDS011;40551;50.478;19.378;2023-07-31T14:48:03;8.90;;;2.60;;
53525;SDS011;40551;50.478;19.378;2023-07-31T14:50:35;12.10;;;2.80;;
53525;SDS011;40551;50.478;19.378;2023-07-31T14:53:08;8.80;;;2.60;;
53525;SDS011;40551;50.478;19.378;2023-07-31T14:55:39;14.50;;;2.90;;
53525;SDS011;40551;50.478;19.378;2023-07-31T14:58:11;16.30;;;3.00;;
53525;SDS011;40551;50.478;19.378;2023-07-31T15:00:43;12.80;;;3.30;;
53525;SDS011;40551;50.478;19.378;2023-07-31T15:03:15;6.80;;;2.20;;
53525;SDS011;40551;50.478;19.378;2023-07-31T15:05:46;6.80;;;2.60;;